Time;durP1;ratioP1;P1;durP2;ratioP2;P2;SDS_P1;SDS_P2;PMS_P1;PMS_P2;Temp;Humidity;BMP_temperature;BMP_pressure;BME280_temperature;BME280_humidity;BME280_pressure;Samples;Min_cycle;Max_cycle;Signal;HPM_P1;HPM_P2
2022/09/30 00:01:46;;;;;;;26.92;14.63;;;;;;;9.03;100.00;98208.53;4388459;32;20083;-70
2022/09/30 00:04:16;;;;;;;27.65;14.63;;;;;;;8.95;100.00;98179.47;4388352;32;20042;-70
2022/09/30 00:06:42;;;;;;;32.85;16.62;;;;;;;8.87;100.00;98155.78;4388284;32;20031;-70
2022/09/30 00:09:12;;;;;;;27.92;13.77;;;;;;;8.81;100.00;98156.84;4395451;32;20055;-70
2022/09/30 00:11:41;;;;;;;26.45;13.43;;;;;;;9.01;100.00;98205.25;4405592;32;20042;-70
2022/09/30 00:14:13;;;;;;;22.17;14.05;;;;;;;8.68;100.00;98153.53;4405503;32;20108;-70
2022/09/30 00:16:40;;;;;;;27.17;13.62;;;;;;;8.87;100.00;98179.94;4405429;32;20019;-70
2022/09/30 00:19:07;;;;;;;24.80;13.73;;;;;;;8.58;100.00;98140.03;4405374;32;20061;-69
2022/09/30 00:21:33;;;;;;;27.70;14.55;;;;;;;8.51;100.00;98142.16;4405684;32;20031;-70
2022/09/30 00:24:01;;;;;;;25.35;13.98;;;;;;;8.55;100.00;98153.97;4405381;32;20046;-70
2022/09/30 00:26:28;;;;;;;25.02;14.90;;;;;;;8.46;100.00;98150.16;4405348;32;20352;-70
2022/09/30 00:28:57;;;;;;;24.70;14.30;;;;;;;8.63;100.00;98190.25;4405356;32;20039;-70
2022/09/30 00:31:26;;;;;;;25.75;15.15;;;;;;;8.73;100.00;98204.56;4404101;32;20437;-70
2022/09/30 00:34:10;;;;;;;26.62;14.23;;;;;;;8.86;100.00;98202.50;4405374;32;20039;-69
2022/09/30 00:36:45;;;;;;;28.10;14.55;;;;;;;8.61;100.00;98190.50;4405376;32;20019;-70
2022/09/30 00:39:32;;;;;;;29.92;15.30;;;;;;;8.44;100.00;98160.31;4404085;32;20038;-69
2022/09/30 00:42:01;;;;;;;24.98;15.05;;;;;;;8.63;100.00;98196.44;4388438;32;20031;-69
2022/09/30 00:44:46;;;;;;;26.48;14.10;;;;;;;8.42;100.00;98167.78;4388200;32;20080;-69
2022/09/30 00:47:40;;;;;;;25.62;14.70;;;;;;;8.54;100.00;98200.66;4386971;32;20037;-69
2022/09/30 00:50:32;;;;;;;24.23;14.15;;;;;;;8.48;100.00;98193.63;4397722;32;20430;-70
2022/09/30 00:53:12;;;;;;;25.20;14.50;;;;;;;8.53;100.00;98188.31;4403015;32;20519;-69
2022/09/30 00:56:10;;;;;;;26.87;14.90;;;;;;;8.45;100.00;98176.16;4403183;32;20416;-70
2022/09/30 00:58:48;;;;;;;25.55;14.63;;;;;;;8.57;100.00;98200.16;4389178;32;20054;-70
2022/09/30 01:01:15;;;;;;;25.62;15.77;;;;;;;8.18;100.00;98154.72;4402832;32;20360;-70
2022/09/30 01:04:04;;;;;;;27.35;15.63;;;;;;;8.11;100.00;98149.59;4372848;32;20057;-69
2022/09/30 01:06:31;;;;;;;24.02;14.57;;;;;;;8.49;100.00;98200.63;4372866;32;20020;-69
2022/09/30 01:08:57;;;;;;;27.17;15.68;;;;;;;8.33;100.00;98162.13;4372709;32;20047;-69
2022/09/30 01:11:26;;;;;;;29.60;14.52;;;;;;;8.51;100.00;98206.53;4372520;32;20036;-69
2022/09/30 01:13:58;;;;;;;27.15;13.93;;;;;;;8.18;100.00;98157.41;4372769;32;20048;-70
2022/09/30 01:16:24;;;;;;;21.70;13.07;;;;;;;8.09;100.00;98158.94;4356535;33;20032;-69
2022/09/30 01:19:18;;;;;;;28.17;14.57;;;;;;;8.43;100.00;98204.31;4357967;33;20053;-69
2022/09/30 01:22:18;;;;;;;32.30;14.45;;;;;;;8.40;100.00;98215.53;4358051;33;20459;-69
2022/09/30 01:25:11;;;;;;;24.77;13.57;;;;;;;8.36;100.00;98212.56;4339527;33;20040;-70
2022/09/30 01:28:03;;;;;;;24.80;13.32;;;;;;;8.09;100.00;98177.69;4357585;33;20048;-70
2022/09/30 01:30:54;;;;;;;25.80;13.82;;;;;;;8.31;100.00;98226.75;4357635;33;20054;-70
2022/09/30 01:33:50;;;;;;;26.33;14.10;;;;;;;8.34;100.00;98236.12;4357508;33;20395;-70
2022/09/30 01:36:47;;;;;;;26.37;14.15;;;;;;;8.36;100.00;98229.47;4352183;32;20093;-70
2022/09/30 01:39:32;;;;;;;26.08;13.60;;;;;;;8.28;100.00;98232.59;4357552;33;20439;-70
2022/09/30 01:42:25;;;;;;;22.17;13.93;;;;;;;8.23;100.00;98243.25;4393417;32;20015;-69
2022/09/30 01:45:01;;;;;;;26.90;14.57;;;;;;;8.23;100.00;98243.25;4402483;32;20068;-69
2022/09/30 01:48:03;;;;;;;22.48;12.80;;;;;;;7.85;100.00;98190.59;4378635;32;20097;-69
2022/09/30 01:51:11;;;;;;;25.87;13.00;;;;;;;8.04;100.00;98250.03;4373332;32;20039;-70
2022/09/30 01:53:54;;;;;;;28.90;13.35;;;;;;;8.00;100.00;98250.56;4386073;32;20086;-70
2022/09/30 01:56:31;;;;;;;25.08;13.70;;;;;;;8.09;100.00;98250.09;4387580;32;20061;-69
2022/09/30 01:59:29;;;;;;;23.02;13.20;;;;;;;8.15;100.00;98257.13;4387441;32;20049;-69
2022/09/30 02:02:24;;;;;;;26.70;12.30;;;;;;;8.06;100.00;98242.56;4387399;32;20080;-70
2022/09/30 02:05:19;;;;;;;22.17;13.32;;;;;;;8.10;100.00;98260.56;4381593;32;20155;-69
2022/09/30 02:07:55;;;;;;;27.30;15.82;;;;;;;8.10;100.00;98263.25;4384971;32;20066;-69
2022/09/30 02:10:29;;;;;;;22.30;13.40;;;;;;;7.91;100.00;98230.59;4390104;32;20024;-69
2022/09/30 02:19:39;;;;;;;23.95;13.65;;;;;;;8.18;100.00;98283.44;4387154;32;20073;-69
2022/09/30 02:22:13;;;;;;;30.60;13.75;;;;;;;8.04;100.00;98232.09;4389493;32;20035;-69
2022/09/30 02:24:42;;;;;;;24.12;13.88;;;;;;;8.44;100.00;98281.03;4398648;32;20027;-69
2022/09/30 02:27:20;;;;;;;32.58;14.45;;;;;;;8.40;100.00;98270.00;4407121;32;20039;-69
2022/09/30 02:29:51;;;;;;;23.42;14.82;;;;;;;8.18;100.00;98237.84;4405333;32;20019;-69
2022/09/30 02:32:25;;;;;;;26.37;14.60;;;;;;;8.16;100.00;98234.63;4405381;32;20043;-69
2022/09/30 02:34:59;;;;;;;26.33;14.25;;;;;;;8.41;100.00;98276.16;4389041;32;20027;-69
2022/09/30 02:37:37;;;;;;;26.95;13.93;;;;;;;8.05;100.00;98235.59;4390149;32;20070;-69
2022/09/30 02:40:15;;;;;;;19.98;12.45;;;;;;;8.16;100.00;98234.63;4388582;32;20026;-69
2022/09/30 02:42:44;;;;;;;21.08;12.90;;;;;;;8.41;100.00;98265.44;4389656;32;20032;-69
2022/09/30 02:45:15;;;;;;;23.40;13.30;;;;;;;8.04;100.00;98217.87;4389769;32;20031;-69
2022/09/30 02:48:03;;;;;;;23.87;12.65;;;;;;;8.34;100.00;98273.69;4389587;32;20122;-69
2022/09/30 02:50:37;;;;;;;21.92;12.37;;;;;;;8.30;100.00;98283.31;4389610;32;20047;-69
2022/09/30 02:53:09;;;;;;;25.42;12.15;;;;;;;8.20;100.00;98281.34;4374746;32;20049;-69
2022/09/30 02:55:58;;;;;;;;;;;;;;;8.00;100.00;98255.91;4374938;32;20052;-70
2022/09/30 02:58:25;;;;;;;21.33;12.85;;;;;;;8.29;100.00;98279.81;4339224;32;20076;-69
2022/09/30 03:00:53;;;;;;;23.15;11.90;;;;;;;8.02;100.00;98241.47;4322470;33;20037;-69
2022/09/30 03:03:22;;;;;;;23.98;13.15;;;;;;;8.15;100.00;98290.12;4315602;33;20029;-69
2022/09/30 03:05:50;;;;;;;25.92;13.23;;;;;;;8.10;100.00;98282.03;4321742;33;20058;-69
2022/09/30 03:08:17;;;;;;;23.90;12.85;;;;;;;7.80;100.00;98229.72;4329866;33;20104;-69
2022/09/30 03:10:45;;;;;;;25.90;13.95;;;;;;;8.00;100.00;98263.94;4329926;33;20028;-69
2022/09/30 03:13:21;;;;;;;29.42;13.25;;;;;;;7.26;100.00;98150.06;4328241;33;20040;-69
2022/09/30 03:16:07;;;;;;;26.83;14.77;;;;;;;8.11;100.00;98282.84;4329830;33;20509;-69
2022/09/30 03:18:51;;;;;;;24.67;14.20;;;;;;;8.19;100.00;98285.06;4329691;33;20055;-69
2022/09/30 03:21:42;;;;;;;26.42;13.88;;;;;;;8.14;100.00;98287.72;4329207;33;20083;-69
2022/09/30 03:24:46;;;;;;;28.33;15.00;;;;;;;8.21;100.00;98291.00;4343427;33;20036;-69
2022/09/30 03:27:15;;;;;;;28.08;15.40;;;;;;;8.24;100.00;98290.50;4359227;32;20054;-69
2022/09/30 03:29:56;;;;;;;26.55;14.15;;;;;;;8.12;100.00;98284.44;4375639;32;20127;-69
2022/09/30 03:32:44;;;;;;;24.08;13.45;;;;;;;8.16;100.00;98286.37;4400699;32;20023;-69
2022/09/30 03:35:17;;;;;;;30.98;16.77;;;;;;;8.13;100.00;98286.87;4406117;32;20018;-69
2022/09/30 03:38:09;;;;;;;33.58;15.95;;;;;;;8.22;100.00;98289.09;4406079;32;20029;-69
2022/09/30 03:41:10;;;;;;;30.17;17.23;;;;;;;8.18;100.00;98286.13;4405971;32;20052;-69
2022/09/30 03:43:42;;;;;;;31.48;17.33;;;;;;;8.26;100.00;98290.22;4405952;32;20065;-69
2022/09/30 03:46:15;;;;;;;;;;;;;;;7.91;100.00;98235.97;4406194;32;20041;-69
2022/09/30 03:48:43;;;;;;;25.30;16.20;;;;;;;8.25;100.00;98284.06;4405800;32;19968;-69
2022/09/30 03:51:10;;;;;;;31.60;17.10;;;;;;;7.89;100.00;98243.47;4405785;32;20016;-69
2022/09/30 03:53:41;;;;;;;34.97;15.93;;;;;;;8.16;100.00;98274.84;4403455;32;20093;-70
2022/09/30 03:56:08;;;;;;;34.58;18.02;;;;;;;8.29;100.00;98295.09;4404194;32;20077;-70
2022/09/30 03:58:40;;;;;;;27.35;16.20;;;;;;;7.76;100.00;98206.34;4404200;32;20052;-69
2022/09/30 04:01:06;;;;;;;29.70;16.87;;;;;;;8.07;100.00;98284.41;4403652;32;20045;-70
2022/09/30 04:03:34;;;;;;;32.15;17.45;;;;;;;8.25;100.00;98310.88;4404038;32;20105;-70
2022/09/30 04:06:00;;;;;;;33.95;16.65;;;;;;;8.36;100.00;98315.31;4403690;32;20371;-70
2022/09/30 04:08:26;;;;;;;29.85;17.30;;;;;;;8.49;100.00;98318.69;4402312;32;20035;-70
2022/09/30 04:10:59;;;;;;;28.92;16.48;;;;;;;8.66;100.00;98322.06;4403818;32;20092;-70
2022/09/30 04:13:26;;;;;;;25.12;16.45;;;;;;;8.64;100.00;98323.38;4403561;32;20045;-70
2022/09/30 04:15:53;;;;;;;28.95;15.77;;;;;;;8.52;100.00;98277.91;4403584;32;20171;-70
2022/09/30 04:18:20;;;;;;;29.20;16.40;;;;;;;8.72;100.00;98307.59;4403332;32;20035;-70
2022/09/30 04:20:46;;;;;;;33.08;15.65;;;;;;;8.91;100.00;98320.66;4358319;32;20172;-70
2022/09/30 04:23:13;;;;;;;26.45;14.90;;;;;;;8.62;100.00;98282.56;4343547;33;20118;-69
2022/09/30 04:25:39;;;;;;;36.53;15.15;;;;;;;8.91;100.00;98339.44;4342019;33;20044;-70
2022/09/30 04:28:05;;;;;;;27.92;15.05;;;;;;;8.68;100.00;98325.28;4328737;33;20071;-70
2022/09/30 04:30:32;;;;;;;33.78;16.12;;;;;;;8.51;100.00;98297.75;4328501;33;20040;-71
2022/09/30 04:32:58;;;;;;;30.42;14.45;;;;;;;8.68;100.00;98341.41;4313981;33;20080;-69
2022/09/30 04:35:28;;;;;;;28.52;14.80;;;;;;;8.60;100.00;98308.84;4284933;33;20387;-70
2022/09/30 04:37:54;;;;;;;30.15;15.20;;;;;;;8.92;100.00;98341.09;4297177;33;20041;-70
2022/09/30 04:40:21;;;;;;;25.12;14.55;;;;;;;8.75;100.00;98300.13;4299396;33;20335;-70
2022/09/30 04:42:47;;;;;;;29.73;14.13;;;;;;;8.63;100.00;98311.84;4285009;33;20055;-69
2022/09/30 04:45:14;;;;;;;26.50;14.50;;;;;;;8.65;100.00;98293.59;4285064;33;20417;-70
2022/09/30 04:47:46;;;;;;;27.35;13.85;;;;;;;8.80;100.00;98300.16;4284908;33;20053;-70
2022/09/30 04:50:12;;;;;;;26.20;14.50;;;;;;;9.15;100.00;98344.47;4284863;33;20068;-69
2022/09/30 04:52:42;;;;;;;26.10;13.80;;;;;;;9.05;100.00;98327.22;4296637;33;20066;-70
2022/09/30 04:55:10;;;;;;;24.73;14.32;;;;;;;8.87;100.00;98300.75;4299412;33;20104;-70
2022/09/30 04:57:36;;;;;;;23.87;15.05;;;;;;;8.70;100.00;98269.47;4299254;33;20021;-70
2022/09/30 05:00:10;;;;;;;25.58;14.35;;;;;;;9.12;100.00;98328.88;4302827;33;20075;-70
2022/09/30 05:02:36;;;;;;;23.10;13.48;;;;;;;9.03;100.00;98294.44;4313563;33;20051;-70
2022/09/30 05:05:03;;;;;;;26.55;14.10;;;;;;;9.21;100.00;98327.34;4338070;32;20036;-70
2022/09/30 05:07:30;;;;;;;23.75;13.50;;;;;;;9.20;100.00;98333.75;4400190;32;20057;-70
2022/09/30 05:09:57;;;;;;;32.15;13.68;;;;;;;9.23;100.00;98322.50;4402659;32;20046;-70
2022/09/30 05:12:25;;;;;;;32.60;14.02;;;;;;;9.31;100.00;98322.03;4387692;32;20478;-70
2022/09/30 05:14:51;;;;;;;27.83;14.30;;;;;;;8.88;100.00;98243.31;4401242;32;20364;-70
2022/09/30 05:17:17;;;;;;;27.87;14.95;;;;;;;9.14;100.00;98289.13;4402596;32;20039;-70
2022/09/30 05:19:44;;;;;;;32.95;14.90;;;;;;;9.28;100.00;98322.53;4401580;32;20061;-70
2022/09/30 05:22:10;;;;;;;32.40;14.77;;;;;;;9.26;100.00;98322.00;4387568;32;20381;-70
2022/09/30 05:24:36;;;;;;;30.50;14.35;;;;;;;8.91;100.00;98275.00;4387621;32;20027;-70
2022/09/30 05:27:03;;;;;;;32.70;14.48;;;;;;;9.41;100.00;98340.91;4388012;32;20182;-70
2022/09/30 05:29:29;;;;;;;27.02;16.08;;;;;;;9.39;100.00;98351.09;4387277;32;20053;-70
2022/09/30 05:31:56;;;;;;;36.65;17.58;;;;;;;9.24;100.00;98322.25;4356215;33;20437;-70
2022/09/30 05:34:23;;;;;;;35.97;17.45;;;;;;;9.59;100.00;98371.13;4357678;33;20069;-70
2022/09/30 05:36:49;;;;;;;43.05;17.58;;;;;;;9.51;100.00;98368.91;4357733;33;20486;-70
2022/09/30 05:39:16;;;;;;;37.13;21.62;;;;;;;9.59;100.00;98371.13;4356437;33;20062;-70
2022/09/30 05:41:42;;;;;;;35.42;17.75;;;;;;;9.74;100.00;98368.50;4357449;33;20101;-69
2022/09/30 05:44:09;;;;;;;33.90;18.83;;;;;;;9.92;100.00;98369.94;4332784;33;20098;-70
2022/09/30 05:46:35;;;;;;;35.28;17.48;;;;;;;9.75;100.00;98320.94;4331016;33;20055;-70
2022/09/30 05:49:01;;;;;;;24.70;15.23;;;;;;;10.16;100.00;98364.97;4330379;33;20041;-70
2022/09/30 05:51:28;;;;;;;27.52;14.68;;;;;;;10.22;100.00;98356.91;4330718;33;20028;-71
2022/09/30 05:53:54;;;;;;;26.45;15.25;;;;;;;10.35;100.00;98361.81;4330633;33;20032;-72
2022/09/30 05:56:21;;;;;;;25.37;12.90;;;;;;;10.13;100.00;98313.53;4330709;33;20040;-72
2022/09/30 05:58:49;;;;;;;32.03;13.65;;;;;;;10.56;100.00;98378.03;4330760;33;20407;-71
2022/09/30 06:01:16;;;;;;;25.70;14.18;;;;;;;10.18;100.00;98325.16;4330724;33;20032;-71
2022/09/30 06:03:45;;;;;;;22.60;11.95;;;;;;;10.45;100.00;98367.25;4339245;33;20486;-71
2022/09/30 06:06:12;;;;;;;24.15;12.75;;;;;;;10.60;100.00;98374.53;4345625;33;20058;-71
2022/09/30 06:08:40;;;;;;;25.37;12.90;;;;;;;10.21;100.00;98302.28;4345687;33;20202;-71
2022/09/30 06:11:10;;;;;;;23.95;12.52;;;;;;;10.82;100.00;98387.78;4342818;33;20399;-71
2022/09/30 06:13:38;;;;;;;24.58;11.68;;;;;;;10.86;100.00;98390.72;4329016;33;20036;-70
2022/09/30 06:16:06;;;;;;;20.67;11.40;;;;;;;10.86;100.00;98396.91;4350491;32;20040;-70
2022/09/30 06:18:33;;;;;;;21.42;11.80;;;;;;;11.07;100.00;98399.66;4359765;32;20320;-71
2022/09/30 06:21:03;;;;;;;28.98;13.10;;;;;;;10.37;100.00;98295.09;4358617;32;20402;-71
2022/09/30 06:23:31;;;;;;;22.67;12.32;;;;;;;10.95;100.00;98404.50;4359804;32;20040;-71
2022/09/30 06:25:57;;;;;;;18.12;11.25;;;;;;;10.77;100.00;98368.09;4360078;32;20047;-70
2022/09/30 06:28:24;;;;;;;25.83;12.13;;;;;;;10.92;100.00;98370.03;4359702;32;20101;-71
2022/09/30 06:30:50;;;;;;;25.95;12.00;;;;;;;11.05;100.00;98409.88;4359847;32;20483;-70
2022/09/30 06:33:17;;;;;;;23.10;11.12;;;;;;;10.83;100.00;98370.56;4359485;32;20425;-70
2022/09/30 06:35:46;;;;;;;17.90;10.85;;;;;;;10.89;100.00;98366.75;4386493;32;20050;-71
2022/09/30 06:38:17;;;;;;;20.00;10.80;;;;;;;10.98;100.00;98375.13;4389592;32;20051;-71
2022/09/30 06:40:48;;;;;;;20.33;8.97;;;;;;;10.95;100.00;98347.94;4389748;32;20039;-71
2022/09/30 06:43:16;;;;;;;18.65;12.13;;;;;;;11.24;100.00;98383.22;4389388;32;20027;-71
2022/09/30 06:45:45;;;;;;;19.98;11.77;;;;;;;11.37;100.00;98425.00;4389201;32;20064;-72
2022/09/30 06:48:11;;;;;;;22.58;10.70;;;;;;;11.44;100.00;98420.16;4389276;32;20039;-71
2022/09/30 06:50:38;;;;;;;30.75;11.25;;;;;;;11.26;100.00;98435.78;4402321;32;20060;-72
2022/09/30 06:53:07;;;;;;;19.92;11.40;;;;;;;10.85;100.00;98349.53;4406658;32;20038;-70
2022/09/30 06:55:38;;;;;;;24.08;11.40;;;;;;;11.63;100.00;98426.62;4403867;32;20380;-72
2022/09/30 06:58:10;;;;;;;21.30;11.48;;;;;;;11.39;100.00;98391.31;4406321;32;20023;-71
2022/09/30 07:00:36;;;;;;;21.52;11.27;;;;;;;11.43;100.00;98396.97;4406481;32;20015;-71
2022/09/30 07:03:08;;;;;;;17.90;11.05;;;;;;;11.43;100.00;98423.91;4406370;32;20031;-71
2022/09/30 07:05:41;;;;;;;17.40;10.20;;;;;;;11.29;100.00;98396.69;4406682;32;20493;-71
2022/09/30 07:08:08;;;;;;;21.60;10.77;;;;;;;11.42;100.00;98400.72;4406313;32;20035;-71
2022/09/30 07:10:34;;;;;;;19.48;10.07;;;;;;;11.38;100.00;98400.47;4406329;32;20030;-72
2022/09/30 07:13:01;;;;;;;15.07;9.50;;;;;;;11.24;100.00;98400.19;4406329;32;20051;-72
2022/09/30 07:15:28;;;;;;;20.85;10.20;;;;;;;11.29;100.00;98401.28;4406118;32;20061;-71
2022/09/30 07:17:59;;;;;;;13.60;10.27;;;;;;;11.78;100.00;98447.34;4404443;32;20035;-71
2022/09/30 07:20:25;;;;;;;14.27;9.23;;;;;;;11.66;100.00;98448.72;4357395;32;20077;-71
2022/09/30 07:22:52;;;;;;;14.35;8.43;;;;;;;11.61;100.00;98453.00;4359029;32;20040;-71
2022/09/30 07:25:19;;;;;;;16.15;9.70;;;;;;;11.23;100.00;98382.44;4359347;32;20046;-70
2022/09/30 07:27:45;;;;;;;18.33;9.82;;;;;;;11.50;100.00;98424.44;4359441;32;20052;-71
2022/09/30 07:30:12;;;;;;;13.20;8.70;;;;;;;11.68;100.00;98462.72;4359147;32;20107;-71
2022/09/30 07:32:38;;;;;;;17.12;9.02;;;;;;;11.71;100.00;98446.00;4359040;32;20042;-71
2022/09/30 07:35:06;;;;;;;12.18;8.02;;;;;;;11.91;100.00;98472.16;4342748;33;20402;-69
2022/09/30 07:37:35;;;;;;;12.40;7.70;;;;;;;12.03;100.00;98486.22;4344192;33;20058;-71
2022/09/30 07:40:05;;;;;;;14.55;7.28;;;;;;;12.15;100.00;98473.22;4344030;33;20029;-71
2022/09/30 07:42:32;;;;;;;13.98;7.37;;;;;;;12.05;100.00;98456.25;4327719;33;20062;-71
2022/09/30 07:44:59;;;;;;;14.27;7.50;;;;;;;12.51;100.00;98496.62;4329040;33;20059;-71
2022/09/30 07:47:25;;;;;;;15.40;7.65;;;;;;;12.19;100.00;98457.31;4328354;33;20455;-71
2022/09/30 07:49:52;;;;;;;11.18;7.62;;;;;;;12.50;100.00;98489.59;4314396;33;20070;-71
2022/09/30 07:52:19;;;;;;;15.18;6.72;;;;;;;12.65;100.00;98494.94;4338994;33;20056;-72
2022/09/30 07:54:51;;;;;;;16.10;8.02;;;;;;;12.77;100.00;98493.81;4343064;33;20102;-70
2022/09/30 07:57:20;;;;;;;11.23;7.28;;;;;;;12.42;100.00;98485.56;4342156;33;20189;-71
2022/09/30 07:59:46;;;;;;;16.80;7.60;;;;;;;12.47;100.00;98457.75;4343640;33;20954;-71
2022/09/30 08:02:15;;;;;;;13.57;7.35;;;;;;;12.97;100.00;98484.78;4343333;33;20032;-71
2022/09/30 08:04:42;;;;;;;13.77;8.48;;;;;;;12.57;100.00;98419.88;4342446;33;20028;-71
2022/09/30 08:07:09;;;;;;;10.98;7.95;;;;;;;12.70;100.00;98488.69;4330047;33;20051;-70
2022/09/30 08:09:35;;;;;;;10.13;7.25;;;;;;;12.42;100.00;98411.88;4329158;33;20055;-71
2022/09/30 08:12:03;;;;;;;10.52;7.22;;;;;;;12.70;100.00;98451.69;4327970;33;20058;-70
2022/09/30 08:14:29;;;;;;;10.45;6.90;;;;;;;12.89;100.00;98470.78;4328960;33;20032;-72
2022/09/30 08:16:57;;;;;;;9.75;6.78;;;;;;;12.87;100.00;98491.06;4328705;33;20440;-71
2022/09/30 08:19:24;;;;;;;14.82;7.30;;;;;;;12.89;100.00;98503.22;4335363;32;20057;-71
2022/09/30 08:21:52;;;;;;;11.18;7.15;;;;;;;12.48;100.00;98453.97;4386217;32;20092;-71
2022/09/30 08:24:19;;;;;;;13.90;6.53;;;;;;;12.95;100.00;98458.03;4357080;32;20046;-71
2022/09/30 08:26:46;;;;;;;8.50;6.10;;;;;;;13.35;100.00;98502.16;4327207;33;20049;-71
2022/09/30 08:29:13;;;;;;;13.82;6.30;;;;;;;13.08;100.00;98479.06;4328808;33;20089;-71
2022/09/30 08:31:40;;;;;;;13.98;6.65;;;;;;;12.89;100.00;98459.97;4328644;33;20048;-71
2022/09/30 08:34:07;;;;;;;9.98;5.40;;;;;;;13.42;100.00;98494.53;4326920;33;20063;-72
2022/09/30 08:36:34;;;;;;;9.02;5.80;;;;;;;13.37;100.00;98508.09;4328499;33;20465;-71
2022/09/30 08:39:07;;;;;;;9.07;5.90;;;;;;;13.21;100.00;98506.53;4328623;33;20042;-71
2022/09/30 08:41:52;;;;;;;9.25;6.15;;;;;;;13.41;100.00;98465.88;4327752;33;20044;-70
2022/09/30 08:44:39;;;;;;;8.27;6.40;;;;;;;13.52;100.00;98511.78;4328434;33;20044;-71
2022/09/30 08:47:31;;;;;;;14.35;6.78;;;;;;;13.33;100.00;98508.94;4328306;33;20046;-71
2022/09/30 08:50:18;;;;;;;8.55;6.28;;;;;;;13.35;100.00;98521.06;4336544;33;20027;-71
2022/09/30 08:52:50;;;;;;;8.88;6.68;;;;;;;12.89;100.00;98476.19;4343023;33;20040;-71
2022/09/30 08:55:23;;;;;;;11.02;7.47;;;;;;;13.08;100.00;98470.94;4349507;32;20046;-70
2022/09/30 08:57:52;;;;;;;12.02;7.82;;;;;;;12.60;100.00;98432.81;4348448;33;20049;-71
2022/09/30 09:00:19;;;;;;;17.58;7.57;;;;;;;13.38;100.00;98504.28;4372704;32;20023;-70
2022/09/30 09:03:40;;;;;;;15.45;7.78;;;;;;;12.92;100.00;98480.22;4371377;32;20049;-71
2022/09/30 09:06:44;;;;;;;18.67;11.70;;;;;;;13.34;100.00;98519.47;4372742;32;20425;-70
2022/09/30 09:09:13;;;;;;;16.90;8.65;;;;;;;13.54;100.00;98517.72;4372294;32;20415;-68
2022/09/30 09:12:06;;;;;;;12.27;7.45;;;;;;;13.68;100.00;98524.09;4379372;32;20049;-69
2022/09/30 09:14:47;;;;;;;11.73;7.10;;;;;;;13.42;100.00;98527.00;4372558;32;20056;-69
2022/09/30 09:17:32;;;;;;;8.20;6.97;;;;;;;13.60;100.00;98528.22;4373560;32;20433;-69
2022/09/30 09:20:20;;;;;;;11.85;7.32;;;;;;;13.49;100.00;98526.66;4387048;32;20115;-69
2022/09/30 09:22:50;;;;;;;12.55;7.00;;;;;;;13.78;100.00;98526.72;4371042;32;20069;-70
2022/09/30 09:25:27;;;;;;;8.77;6.85;;;;;;;13.67;100.00;98522.47;4372640;32;20020;-68
2022/09/30 09:27:59;;;;;;;12.65;6.47;;;;;;;13.98;100.00;98528.47;4344346;33;20091;-70
2022/09/30 09:30:31;;;;;;;8.80;6.57;;;;;;;13.63;100.00;98488.97;4362501;33;20024;-70
2022/09/30 09:33:17;;;;;;;9.88;6.47;;;;;;;13.50;100.00;98455.28;4359493;33;20359;-68
2022/09/30 09:35:48;;;;;;;20.30;6.78;;;;;;;13.92;100.00;98523.37;4357623;33;20053;-70
2022/09/30 09:38:34;;;;;;;13.50;6.97;;;;;;;14.11;100.00;98526.19;4357605;33;20044;-69
2022/09/30 09:41:16;;;;;;;16.10;7.03;;;;;;;14.31;100.00;98536.81;4357736;33;20093;-69
2022/09/30 09:44:01;;;;;;;8.82;6.43;;;;;;;13.91;100.00;98491.97;4357661;33;20043;-68
2022/09/30 09:46:43;;;;;;;10.52;6.50;;;;;;;14.27;100.00;98518.72;4369692;32;20023;-69
2022/09/30 09:49:12;;;;;;;11.93;6.57;;;;;;;13.99;100.00;98488.66;4372681;32;20051;-69
2022/09/30 09:52:04;;;;;;;10.65;6.45;;;;;;;13.99;100.00;98488.66;4371948;32;20062;-69
2022/09/30 09:54:36;;;;;;;8.93;6.05;;;;;;;13.85;100.00;98479.59;4372319;32;20059;-69
2022/09/30 09:57:09;;;;;;;11.63;6.87;;;;;;;13.94;100.00;98521.19;4372004;32;20016;-69
2022/09/30 09:59:53;;;;;;;11.65;6.45;;;;;;;14.26;100.00;98503.56;4391453;32;20057;-69
2022/09/30 10:02:23;;;;;;;8.27;6.03;;;;;;;14.71;100.00;98520.44;4402538;32;20023;-69
2022/09/30 10:04:58;;;;;;;11.12;6.43;;;;;;;14.91;100.00;98519.38;4400649;32;20172;-67
2022/09/30 10:07:27;;;;;;;10.65;5.22;;;;;;;14.69;100.00;98517.19;4401809;32;20179;-68
2022/09/30 10:10:18;;;;;;;9.20;5.05;;;;;;;14.17;100.00;98471.69;4372108;32;20039;-68
2022/09/30 10:12:46;;;;;;;8.82;6.20;;;;;;;14.57;100.00;98514.06;4371870;32;20027;-69
2022/09/30 10:15:21;;;;;;;11.77;5.87;;;;;;;14.60;100.00;98518.94;4371976;32;20044;-69
2022/09/30 10:17:54;;;;;;;18.30;5.57;;;;;;;14.35;100.00;98499.13;4371763;32;20035;-68
2022/09/30 10:20:30;;;;;;;5.62;4.65;;;;;;;14.39;100.00;98456.03;4340886;33;20091;-69
2022/09/30 10:23:25;;;;;;;7.05;4.87;;;;;;;14.73;100.00;98477.59;4342414;33;20033;-69
2022/09/30 10:26:09;;;;;;;7.32;5.80;;;;;;;15.04;100.00;98523.28;4339773;33;20036;-68
2022/09/30 10:28:51;;;;;;;8.80;5.22;;;;;;;14.86;100.00;98492.34;4342200;33;20449;-70
2022/09/30 10:31:27;;;;;;;10.93;4.53;;;;;;;15.12;100.00;98487.38;4356172;32;20048;-69
2022/09/30 10:34:07;;;;;;;6.62;4.93;;;;;;;15.38;100.00;98524.97;4359848;32;20032;-68
2022/09/30 10:36:45;;;;;;;6.12;4.32;;;;;;;15.48;100.00;98535.69;4333286;33;20040;-68
2022/09/30 10:39:17;;;;;;;6.00;4.07;;;;;;;15.00;100.00;98471.56;4344877;33;20402;-68
2022/09/30 10:41:44;;;;;;;6.50;4.50;;;;;;;15.03;100.00;98540.63;4353663;32;20385;-69
2022/09/30 10:44:17;;;;;;;6.35;3.80;;;;;;;14.71;100.00;98542.12;4359584;32;20071;-69
2022/09/30 10:46:46;;;;;;;8.32;4.47;;;;;;;14.08;100.00;98470.72;4358066;32;20027;-68
2022/09/30 10:49:25;;;;;;;6.75;4.43;;;;;;;14.70;100.00;98540.50;4359334;32;20044;-69
2022/09/30 10:51:51;;;;;;;6.45;3.95;;;;;;;14.60;100.00;98506.22;4369462;32;20039;-68
2022/09/30 10:54:49;;;;;;;4.72;4.22;;;;;;;14.65;100.00;98513.47;4374675;32;20043;-67
2022/09/30 10:57:19;;;;;;;8.35;4.22;;;;;;;14.91;100.00;98507.72;4374057;32;20031;-68
2022/09/30 10:59:46;;;;;;;5.37;4.18;;;;;;;15.04;100.00;98509.72;4373339;32;20181;-69
2022/09/30 11:02:28;;;;;;;4.90;3.80;;;;;;;14.97;100.00;98503.88;4373235;32;20061;-69
2022/09/30 11:05:24;;;;;;;;;;;;;;;15.11;100.00;98533.75;4374678;32;20467;-69
2022/09/30 11:08:08;;;;;;;5.25;3.85;;;;;;;15.18;100.00;98540.44;4353197;32;20313;-69
2022/09/30 11:10:34;;;;;;;3.90;3.50;;;;;;;15.07;100.00;98541.66;4359428;32;20048;-69
2022/09/30 11:13:11;;;;;;;4.43;3.87;;;;;;;15.09;100.00;98539.47;4367886;32;20075;-69
2022/09/30 11:16:05;;;;;;;7.93;4.12;;;;;;;14.97;100.00;98509.28;4374166;32;20032;-68
2022/09/30 11:18:36;;;;;;;5.45;3.85;;;;;;;14.86;100.00;98552.78;4374007;32;20075;-69
2022/09/30 11:21:11;;;;;;;5.15;3.70;;;;;;;14.68;100.00;98513.69;4362087;32;20578;-69
2022/09/30 11:23:45;;;;;;;5.00;4.20;;;;;;;14.89;100.00;98535.13;4370733;32;20438;-69
2022/09/30 11:26:26;;;;;;;3.72;3.35;;;;;;;14.92;100.00;98544.56;4374076;32;20448;-68
2022/09/30 11:29:14;;;;;;;4.93;3.78;;;;;;;14.94;100.00;98553.22;4359083;32;20019;-68
2022/09/30 11:32:05;;;;;;;5.75;4.07;;;;;;;14.54;100.00;98535.22;4358775;32;20379;-69
2022/09/30 11:35:07;;;;;;;6.78;5.10;;;;;;;14.94;100.00;98551.31;4359023;32;20417;-69
2022/09/30 11:37:55;;;;;;;6.70;3.80;;;;;;;14.63;100.00;98510.22;4329115;33;20040;-70
2022/09/30 11:40:29;;;;;;;3.92;3.50;;;;;;;14.81;100.00;98550.12;4307560;33;20039;-68
2022/09/30 11:43:07;;;;;;;5.28;3.37;;;;;;;14.66;100.00;98558.41;4270971;33;20448;-68
2022/09/30 11:45:55;;;;;;;7.03;3.97;;;;;;;14.92;100.00;98550.81;4270979;33;20430;-69
2022/09/30 11:48:51;;;;;;;3.50;3.20;;;;;;;14.54;100.00;98561.50;4285539;33;20051;-70
2022/09/30 11:51:23;;;;;;;8.30;3.05;;;;;;;14.70;100.00;98554.06;4267350;33;20030;-68
2022/09/30 11:54:16;;;;;;;4.72;2.60;;;;;;;14.81;100.00;98560.97;4285267;33;20069;-69
2022/09/30 11:56:50;;;;;;;6.53;3.65;;;;;;;14.29;100.00;98555.22;4285166;33;20364;-68
2022/09/30 11:59:24;;;;;;;3.40;3.10;;;;;;;14.32;100.00;98516.75;4280042;33;20398;-68